• Join FlightAware (Why Join?)
  • Login
  • US Flag 
03:24AM EDT


 

Airport Tracker/Info


-or-


 

Live Flight TrackerFlight Track Log ✈ N734M ✈ 18-Jul-2013 ✈ KFAR - KDLH

Flight Track Log - Related Links

Times and Time Zones

All times are in EDT time to prevent confusion due to time zone crossing. See the N734M flight status page for this flight to view local times or setup timezone preferences in your user account.

Time Position Orientation Groundspeed Altitude Reporting Facility
EDT Latitude Longitude Course Direction KTS MPH feet Rate Location/Type
03:25PM 46.9064 -96.7222 90° East 116 133 2,500  Level Minneapolis Center
03:26PM 46.9119 -96.6725 81° East 119 137 3,000 480 Climbing Minneapolis Center
03:27PM 46.9142 -96.6253 86° East 113 130 3,500 480 Climbing Minneapolis Center
03:28PM 46.9172 -96.5794 84° East 109 125 4,000 420 Climbing Minneapolis Center
03:29PM 46.9212 -96.5002 90° East  Level Estimated
03:29PM 46.9183 -96.5283 88° East 118 136 4,400  Level Minneapolis Center
03:30PM 46.9212 -96.4476 90° East  Level Estimated
03:30PM 46.9186 -96.4769 90° East 122 140 4,900  Level Minneapolis Center
03:31PM 46.9197 -96.4258 88° East 120 138 5,300 240 Climbing Minneapolis Center
03:32PM 46.9192 -96.3706 91° East 130 150 5,500 60 Climbing Minneapolis Center
03:33PM 46.9189 -96.3078 90° East 155 178 5,500  Level Minneapolis Center
03:34PM 46.9186 -96.2394 90° East 161 185 5,500 -60 Level Minneapolis Center
03:35PM 46.9181 -96.1686 91° East 166 191 5,400 -60 Descending Minneapolis Center
03:36PM 46.9178 -96.0983 90° East 166 191 5,400  Level Minneapolis Center
03:37PM 46.9186 -96.0272 89° East 167 192 5,400  Level Minneapolis Center
03:38PM 46.9175 -95.9550 91° East 170 196 5,400  Level Minneapolis Center
03:39PM 46.9175 -95.8842 90° East 168 193 5,400 60 Level Minneapolis Center
03:40PM 46.9169 -95.8206 91° East 165 190 5,600 60 Climbing Minneapolis Center
03:41PM 46.9172 -95.7500 90° East 167 192 5,600  Level Minneapolis Center
03:42PM 46.9169 -95.6806 90° East 163 188 5,600  Level Minneapolis Center
03:43PM 46.9158 -95.6100 91° East 165 190 5,600  Level Minneapolis Center
03:44PM 46.9147 -95.5400 91° East 165 190 5,600  Level Minneapolis Center
03:45PM 46.9150 -95.4706 90° East 164 189 5,600  Level Minneapolis Center
03:46PM 46.9144 -95.4119 91° East 163 188 5,600  Level Minneapolis Center
03:47PM 46.9133 -95.3469 91° East 161 185 5,600  Level Minneapolis Center
03:49PM 46.9114 -95.2689 92° East 161 185 5,600  Level Minneapolis Center
03:50PM 46.9117 -95.2008 90° East 164 189 5,600  Level Minneapolis Center
03:51PM 46.9108 -95.1356 91° East 163 188 5,600 -60 Level Minneapolis Center
03:52PM 46.9106 -95.0683 90° East 164 189 5,500  Descending Minneapolis Center
03:53PM 46.9089 -95.0006 92° East 166 191 5,600  Climbing Minneapolis Center
03:54PM 46.9089 -94.9350 90° East 165 190 5,600 -60 Level Minneapolis Center
03:55PM 46.9075 -94.8550 91° East 164 189 5,500  Descending Minneapolis Center
03:56PM 46.9064 -94.7892 91° East 164 189 5,600  Climbing Minneapolis Center
03:57PM 46.9058 -94.7242 91° East 162 186 5,600  Level Minneapolis Center
03:58PM 46.9050 -94.6572 91° East 163 188 5,600  Level Minneapolis Center
03:59PM 46.9044 -94.5922 91° East 162 186 5,600  Level Minneapolis Center
04:00PM 46.9019 -94.5122 93° East 163 188 5,600  Level Minneapolis Center
04:01PM 46.9008 -94.4439 91° East 165 190 5,600  Level Minneapolis Center
04:02PM 46.9000 -94.3769 91° East 166 191 5,600 -120 Level Minneapolis Center
04:03PM 46.8986 -94.3100 92° East 166 191 5,400 -60 Descending Minneapolis Center
04:04PM 46.8978 -94.2450 91° East 164 189 5,500  Climbing Minneapolis Center
04:05PM 46.8967 -94.1792 91° East 163 188 5,500  Level Minneapolis Center
04:06PM 46.8953 -94.0983 91° East 164 189 5,500  Level Minneapolis Center
04:07PM 46.8939 -94.0319 92° East 165 190 5,500  Level Minneapolis Center
04:08PM 46.8925 -93.9656 92° East 164 189 5,500  Level Minneapolis Center
04:09PM 46.8914 -93.9000 91° East 164 189 5,500  Level Minneapolis Center
04:10PM 46.8892 -93.8331 93° East 164 189 5,500  Level Minneapolis Center
04:11PM 46.8875 -93.7522 92° East 165 190 5,500  Level Minneapolis Center
04:12PM 46.8867 -93.6850 91° East 166 191 5,500  Level Minneapolis Center
04:13PM 46.8847 -93.6181 92° East 166 191 5,500  Level Minneapolis Center
04:14PM 46.8822 -93.5506 93° East 166 191 5,500  Level Minneapolis Center
04:15PM 46.8814 -93.4822 91° East 167 192 5,500  Level Minneapolis Center
04:16PM 46.8792 -93.4144 93° East 168 193 5,500  Level Minneapolis Center
04:17PM 46.8775 -93.3336 92° East 168 193 5,500  Level Minneapolis Center
04:19PM 46.8756 -93.2661 92° East 167 192 5,500  Level Minneapolis Center
04:20PM 46.8739 -93.1994 92° East 166 191 5,500  Level Minneapolis Center
04:21PM 46.8717 -93.1325 93° East 166 191 5,500  Level Minneapolis Center
04:22PM 46.8697 -93.0656 92° East 166 191 5,500  Level Minneapolis Center
04:23PM 46.8669 -92.9844 93° East 167 192 5,500  Level Minneapolis Center
04:24PM 46.8658 -92.9117 91° East 166 191 5,500  Level Minneapolis Center
04:25PM 46.8636 -92.8519 93° East 165 190 5,500  Level Minneapolis Center
04:26PM 46.8614 -92.7847 93° East 165 190 5,500 -300 Level Minneapolis Center
04:27PM 46.8592 -92.7136 93° East 169 194 5,000 -540 Descending Minneapolis Center
04:28PM 46.8569 -92.6303 92° East 172 198 4,500 -540 Descending Minneapolis Center
04:29PM 46.8547 -92.5642 93° East 169 194 4,000 -480 Descending Minneapolis Center
04:30PM 46.8528 -92.5000 93° East 164 189 3,600 -420 Descending Minneapolis Center
04:31PM 46.8511 -92.4369 92° East 161 185 3,200 -300 Descending Minneapolis Center
04:32PM 46.8483 -92.3761 94° East 157 181 3,000 -60 Descending Minneapolis Center
04:33PM 46.8483 -92.3242 90° East 145 167 3,100  Climbing Minneapolis Center
04:34PM 46.8556 -92.2558 81° East 140 161 3,000 -300 Descending Minneapolis Center
04:35PM 46.8622 -92.1917 81° East 147 169 2,500 -360 Descending Minneapolis Center
04:36PM 46.8725 -92.1497 70° East 130 150 2,300 -300 Descending Minneapolis Center
04:37PM 46.8564 -92.1689 219° Southwest 111 128 1,900 -420 Descending Minneapolis Center
04:39PM 46.8421 -92.1936 230° Southwest  Level Estimated